sensor_id;sensor_type;location;lat;lon;timestamp;pressure;altitude;pressure_sealevel;temperature;humidity
6144;BME280;3103;49.492;8.474;2023-06-26T00:00:24;100400.44;;;27.00;38.11
6144;BME280;3103;49.492;8.474;2023-06-26T00:02:51;100399.31;;;27.01;37.75
6144;BME280;3103;49.492;8.474;2023-06-26T00:05:18;100399.81;;;27.03;37.49
6144;BME280;3103;49.492;8.474;2023-06-26T00:07:45;100400.69;;;27.07;37.18
6144;BME280;3103;49.492;8.474;2023-06-26T00:10:11;100401.59;;;27.11;37.08
6144;BME280;3103;49.492;8.474;2023-06-26T00:12:38;100407.31;;;27.18;37.05
6144;BME280;3103;49.492;8.474;2023-06-26T00:15:05;100406.84;;;27.16;37.26
6144;BME280;3103;49.492;8.474;2023-06-26T00:17:34;100403.28;;;27.16;37.46
6144;BME280;3103;49.492;8.474;2023-06-26T00:20:04;100400.34;;;27.09;37.85
6144;BME280;3103;49.492;8.474;2023-06-26T00:22:38;100397.06;;;26.91;38.80
6144;BME280;3103;49.492;8.474;2023-06-26T00:25:08;100403.38;;;26.91;38.81
6144;BME280;3103;49.492;8.474;2023-06-26T00:27:35;100404.59;;;26.66;38.95
6144;BME280;3103;49.492;8.474;2023-06-26T00:30:04;100406.44;;;26.62;38.56
6144;BME280;3103;49.492;8.474;2023-06-26T00:32:32;100405.78;;;26.41;38.64
6144;BME280;3103;49.492;8.474;2023-06-26T00:35:01;100412.06;;;26.29;39.18
6144;BME280;3103;49.492;8.474;2023-06-26T00:37:29;100407.38;;;26.17;39.49
6144;BME280;3103;49.492;8.474;2023-06-26T00:39:56;100401.31;;;26.36;39.25
6144;BME280;3103;49.492;8.474;2023-06-26T00:42:22;100409.91;;;26.22;39.34
6144;BME280;3103;49.492;8.474;2023-06-26T00:44:49;100404.97;;;26.52;38.43
6144;BME280;3103;49.492;8.474;2023-06-26T00:47:17;100397.59;;;26.32;38.54
6144;BME280;3103;49.492;8.474;2023-06-26T00:49:44;100406.22;;;26.43;38.53
6144;BME280;3103;49.492;8.474;2023-06-26T00:52:11;100401.75;;;26.26;38.77
6144;BME280;3103;49.492;8.474;2023-06-26T00:54:38;100394.09;;;26.07;39.04
6144;BME280;3103;49.492;8.474;2023-06-26T00:57:05;100389.13;;;26.13;38.71
6144;BME280;3103;49.492;8.474;2023-06-26T00:59:34;100388.13;;;26.05;38.99
6144;BME280;3103;49.492;8.474;2023-06-26T01:02:01;100390.50;;;26.31;38.53
6144;BME280;3103;49.492;8.474;2023-06-26T01:04:28;100382.38;;;26.10;38.82
6144;BME280;3103;49.492;8.474;2023-06-26T01:06:59;100385.13;;;26.10;39.02
6144;BME280;3103;49.492;8.474;2023-06-26T01:09:27;100379.41;;;25.91;39.17
6144;BME280;3103;49.492;8.474;2023-06-26T01:11:55;100372.63;;;26.00;39.50
6144;BME280;3103;49.492;8.474;2023-06-26T01:14:23;100373.91;;;25.91;40.00
6144;BME280;3103;49.492;8.474;2023-06-26T01:16:50;100371.38;;;25.98;39.81
6144;BME280;3103;49.492;8.474;2023-06-26T01:19:22;100373.66;;;26.08;39.90
6144;BME280;3103;49.492;8.474;2023-06-26T01:25:14;100366.75;;;25.90;41.02
6144;BME280;3103;49.492;8.474;2023-06-26T01:27:50;100367.13;;;25.88;41.99
6144;BME280;3103;49.492;8.474;2023-06-26T01:30:18;100357.84;;;25.81;42.08
6144;BME280;3103;49.492;8.474;2023-06-26T01:32:46;100359.44;;;25.82;41.81
6144;BME280;3103;49.492;8.474;2023-06-26T01:35:15;100369.28;;;25.70;42.31
6144;BME280;3103;49.492;8.474;2023-06-26T01:37:42;100374.78;;;25.70;42.74
6144;BME280;3103;49.492;8.474;2023-06-26T01:40:09;100357.94;;;25.96;41.51
6144;BME280;3103;49.492;8.474;2023-06-26T01:42:39;100361.50;;;25.85;41.87
6144;BME280;3103;49.492;8.474;2023-06-26T01:45:14;100365.97;;;25.77;42.23
6144;BME280;3103;49.492;8.474;2023-06-26T01:47:49;100363.44;;;25.72;43.26
6144;BME280;3103;49.492;8.474;2023-06-26T01:50:22;100365.22;;;25.56;44.51
6144;BME280;3103;49.492;8.474;2023-06-26T01:53:03;100365.84;;;25.28;43.95
6144;BME280;3103;49.492;8.474;2023-06-26T01:55:40;100376.53;;;25.42;43.45
6144;BME280;3103;49.492;8.474;2023-06-26T01:58:08;100368.63;;;25.40;43.42
6144;BME280;3103;49.492;8.474;2023-06-26T02:00:36;100369.91;;;25.43;43.58
6144;BME280;3103;49.492;8.474;2023-06-26T02:03:04;100363.44;;;25.27;43.87
6144;BME280;3103;49.492;8.474;2023-06-26T02:05:32;100358.94;;;25.10;44.62
6144;BME280;3103;49.492;8.474;2023-06-26T02:08:00;100359.47;;;25.03;44.71
6144;BME280;3103;49.492;8.474;2023-06-26T02:10:30;100362.75;;;24.97;45.01
6144;BME280;3103;49.492;8.474;2023-06-26T02:12:57;100364.50;;;25.01;45.03
6144;BME280;3103;49.492;8.474;2023-06-26T02:15:25;100373.38;;;25.19;44.57
6144;BME280;3103;49.492;8.474;2023-06-26T02:17:53;100363.22;;;24.99;45.18
6144;BME280;3103;49.492;8.474;2023-06-26T02:20:20;100371.53;;;25.11;45.26
6144;BME280;3103;49.492;8.474;2023-06-26T02:22:47;100374.22;;;25.32;44.85
6144;BME280;3103;49.492;8.474;2023-06-26T02:25:14;100369.50;;;25.20;45.09
6144;BME280;3103;49.492;8.474;2023-06-26T02:27:41;100368.59;;;24.95;45.25
6144;BME280;3103;49.492;8.474;2023-06-26T02:30:09;100369.19;;;24.38;46.52
6144;BME280;3103;49.492;8.474;2023-06-26T02:32:36;100369.88;;;24.26;47.46
6144;BME280;3103;49.492;8.474;2023-06-26T02:35:03;100366.34;;;24.26;47.31
6144;BME280;3103;49.492;8.474;2023-06-26T02:37:30;100373.69;;;24.43;46.97
6144;BME280;3103;49.492;8.474;2023-06-26T02:39:58;100363.00;;;24.50;47.35
6144;BME280;3103;49.492;8.474;2023-06-26T02:42:26;100364.31;;;24.44;47.47
6144;BME280;3103;49.492;8.474;2023-06-26T02:44:53;100366.44;;;24.38;47.98
6144;BME280;3103;49.492;8.474;2023-06-26T02:47:20;100361.63;;;24.35;48.34
6144;BME280;3103;49.492;8.474;2023-06-26T02:49:48;100365.09;;;24.44;48.21
6144;BME280;3103;49.492;8.474;2023-06-26T02:52:14;100366.41;;;24.68;47.70
6144;BME280;3103;49.492;8.474;2023-06-26T02:54:41;100367.94;;;24.77;47.42
6144;BME280;3103;49.492;8.474;2023-06-26T02:57:09;100363.53;;;24.64;48.04
6144;BME280;3103;49.492;8.474;2023-06-26T02:59:37;100372.97;;;24.54;48.41
6144;BME280;3103;49.492;8.474;2023-06-26T03:02:04;100366.59;;;24.83;47.98
6144;BME280;3103;49.492;8.474;2023-06-26T03:04:43;100373.97;;;24.92;47.78
6144;BME280;3103;49.492;8.474;2023-06-26T03:07:13;100377.97;;;24.73;48.32
6144;BME280;3103;49.492;8.474;2023-06-26T03:09:41;100375.69;;;24.75;48.35
6144;BME280;3103;49.492;8.474;2023-06-26T03:12:09;100379.94;;;24.52;49.27
6144;BME280;3103;49.492;8.474;2023-06-26T03:14:36;100379.84;;;24.40;49.68
6144;BME280;3103;49.492;8.474;2023-06-26T03:17:03;100381.91;;;24.43;50.06
6144;BME280;3103;49.492;8.474;2023-06-26T03:19:31;100379.94;;;24.52;49.96
6144;BME280;3103;49.492;8.474;2023-06-26T03:22:13;100379.38;;;24.38;50.24
6144;BME280;3103;49.492;8.474;2023-06-26T03:24:40;100375.84;;;24.28;50.89
6144;BME280;3103;49.492;8.474;2023-06-26T03:27:07;100378.84;;;24.44;50.35
6144;BME280;3103;49.492;8.474;2023-06-26T03:29:36;100372.75;;;24.39;50.12
6144;BME280;3103;49.492;8.474;2023-06-26T03:32:03;100379.09;;;24.31;50.19
6144;BME280;3103;49.492;8.474;2023-06-26T03:34:31;100373.00;;;24.46;49.88
6144;BME280;3103;49.492;8.474;2023-06-26T03:36:58;100375.97;;;24.41;50.12
6144;BME280;3103;49.492;8.474;2023-06-26T03:39:25;100378.84;;;24.15;51.01
6144;BME280;3103;49.492;8.474;2023-06-26T03:41:52;100373.56;;;24.39;50.31
6144;BME280;3103;49.492;8.474;2023-06-26T03:44:20;100371.63;;;24.40;50.21
6144;BME280;3103;49.492;8.474;2023-06-26T03:46:49;100387.03;;;24.23;50.31
6144;BME280;3103;49.492;8.474;2023-06-26T03:49:16;100374.34;;;24.40;49.91
6144;BME280;3103;49.492;8.474;2023-06-26T03:51:44;100373.88;;;24.38;49.68
6144;BME280;3103;49.492;8.474;2023-06-26T03:54:11;100376.16;;;24.36;49.48
6144;BME280;3103;49.492;8.474;2023-06-26T03:56:38;100369.88;;;24.35;49.49
6144;BME280;3103;49.492;8.474;2023-06-26T03:59:05;100377.03;;;24.48;48.92
6144;BME280;3103;49.492;8.474;2023-06-26T04:01:32;100377.56;;;24.42;48.86
6144;BME280;3103;49.492;8.474;2023-06-26T04:04:00;100369.03;;;24.35;49.22
6144;BME280;3103;49.492;8.474;2023-06-26T04:06:27;100370.69;;;24.36;48.94
6144;BME280;3103;49.492;8.474;2023-06-26T04:08:54;100367.94;;;24.36;48.93
6144;BME280;3103;49.492;8.474;2023-06-26T04:11:21;100370.09;;;24.21;49.55
6144;BME280;3103;49.492;8.474;2023-06-26T04:13:48;100377.78;;;24.28;49.58
6144;BME280;3103;49.492;8.474;2023-06-26T04:16:15;100375.28;;;24.14;50.19
6144;BME280;3103;49.492;8.474;2023-06-26T04:18:42;100372.88;;;24.13;50.07
6144;BME280;3103;49.492;8.474;2023-06-26T04:21:11;100380.41;;;24.24;49.76
6144;BME280;3103;49.492;8.474;2023-06-26T04:23:39;100373.56;;;24.39;48.66
6144;BME280;3103;49.492;8.474;2023-06-26T04:26:07;100382.72;;;24.43;48.44
6144;BME280;3103;49.492;8.474;2023-06-26T04:28:35;100383.47;;;24.52;48.13
6144;BME280;3103;49.492;8.474;2023-06-26T04:31:02;100388.09;;;24.61;48.00
6144;BME280;3103;49.492;8.474;2023-06-26T04:33:32;100382.94;;;24.59;47.72
6144;BME280;3103;49.492;8.474;2023-06-26T04:35:59;100390.38;;;24.79;47.22
6144;BME280;3103;49.492;8.474;2023-06-26T04:38:31;100389.31;;;24.72;47.22
6144;BME280;3103;49.492;8.474;2023-06-26T04:40:59;100387.00;;;24.74;47.08
6144;BME280;3103;49.492;8.474;2023-06-26T04:43:26;100387.50;;;24.55;47.90
6144;BME280;3103;49.492;8.474;2023-06-26T04:45:53;100385.41;;;24.73;47.60
6144;BME280;3103;49.492;8.474;2023-06-26T04:48:20;100388.28;;;24.76;47.82
6144;BME280;3103;49.492;8.474;2023-06-26T04:50:48;100384.56;;;24.81;47.33
6144;BME280;3103;49.492;8.474;2023-06-26T04:53:21;100379.31;;;24.88;47.20
6144;BME280;3103;49.492;8.474;2023-06-26T04:55:51;100394.31;;;24.91;46.72
6144;BME280;3103;49.492;8.474;2023-06-26T04:58:19;100380.47;;;25.08;46.63
6144;BME280;3103;49.492;8.474;2023-06-26T05:00:46;100383.47;;;24.94;46.40
6144;BME280;3103;49.492;8.474;2023-06-26T05:03:15;100379.50;;;25.04;46.06
6144;BME280;3103;49.492;8.474;2023-06-26T05:05:43;100378.53;;;25.08;45.82
6144;BME280;3103;49.492;8.474;2023-06-26T05:08:18;100375.22;;;25.15;45.40
6144;BME280;3103;49.492;8.474;2023-06-26T05:10:45;100386.47;;;25.22;45.13
6144;BME280;3103;49.492;8.474;2023-06-26T05:13:12;100384.75;;;25.30;44.25
6144;BME280;3103;49.492;8.474;2023-06-26T05:15:41;100381.59;;;25.07;44.80
6144;BME280;3103;49.492;8.474;2023-06-26T05:18:08;100379.13;;;25.26;44.60
6144;BME280;3103;49.492;8.474;2023-06-26T05:20:36;100394.53;;;25.39;43.87
6144;BME280;3103;49.492;8.474;2023-06-26T05:23:04;100387.22;;;25.56;43.71
6144;BME280;3103;49.492;8.474;2023-06-26T05:25:31;100386.81;;;25.66;43.70
6144;BME280;3103;49.492;8.474;2023-06-26T05:27:59;100395.66;;;25.71;43.42
6144;BME280;3103;49.492;8.474;2023-06-26T05:30:26;100393.34;;;25.73;43.55
6144;BME280;3103;49.492;8.474;2023-06-26T05:32:54;100385.44;;;25.72;43.70
6144;BME280;3103;49.492;8.474;2023-06-26T05:35:22;100388.19;;;25.72;43.59
6144;BME280;3103;49.492;8.474;2023-06-26T05:37:50;100391.03;;;25.63;44.17
6144;BME280;3103;49.492;8.474;2023-06-26T05:40:18;100395.13;;;25.57;43.90
6144;BME280;3103;49.492;8.474;2023-06-26T05:42:45;100387.53;;;25.87;42.80
6144;BME280;3103;49.492;8.474;2023-06-26T05:45:12;100389.72;;;26.06;42.20
6144;BME280;3103;49.492;8.474;2023-06-26T05:47:39;100392.59;;;26.22;41.61
6144;BME280;3103;49.492;8.474;2023-06-26T05:50:08;100390.03;;;26.29;41.69
6144;BME280;3103;49.492;8.474;2023-06-26T05:52:36;100381.34;;;26.15;41.73
6144;BME280;3103;49.492;8.474;2023-06-26T05:55:03;100389.03;;;26.21;41.55
6144;BME280;3103;49.492;8.474;2023-06-26T05:57:31;100389.94;;;26.50;40.67
6144;BME280;3103;49.492;8.474;2023-06-26T05:59:58;100388.47;;;26.40;41.04
6144;BME280;3103;49.492;8.474;2023-06-26T06:02:25;100388.84;;;26.67;40.48
6144;BME280;3103;49.492;8.474;2023-06-26T06:04:51;100390.38;;;27.04;39.69
6144;BME280;3103;49.492;8.474;2023-06-26T06:07:18;100389.13;;;26.61;40.34
6144;BME280;3103;49.492;8.474;2023-06-26T06:09:45;100389.94;;;26.25;41.23
6144;BME280;3103;49.492;8.474;2023-06-26T06:12:12;100390.28;;;26.48;40.92
6144;BME280;3103;49.492;8.474;2023-06-26T06:14:39;100392.00;;;26.53;40.82
6144;BME280;3103;49.492;8.474;2023-06-26T06:17:05;100388.63;;;26.59;41.01
6144;BME280;3103;49.492;8.474;2023-06-26T06:19:32;100385.00;;;26.83;40.52
6144;BME280;3103;49.492;8.474;2023-06-26T06:21:59;100383.81;;;26.97;39.86
6144;BME280;3103;49.492;8.474;2023-06-26T06:24:26;100389.59;;;26.91;40.19
6144;BME280;3103;49.492;8.474;2023-06-26T06:26:52;100391.72;;;27.10;39.72
6144;BME280;3103;49.492;8.474;2023-06-26T06:29:19;100388.47;;;27.20;39.53
6144;BME280;3103;49.492;8.474;2023-06-26T06:31:46;100383.56;;;27.30;39.28
6144;BME280;3103;49.492;8.474;2023-06-26T06:34:13;100380.94;;;27.33;39.22
6144;BME280;3103;49.492;8.474;2023-06-26T06:36:40;100388.88;;;27.50;39.08
6144;BME280;3103;49.492;8.474;2023-06-26T06:39:07;100397.69;;;27.12;39.60
6144;BME280;3103;49.492;8.474;2023-06-26T06:41:34;100382.75;;;27.29;39.61
6144;BME280;3103;49.492;8.474;2023-06-26T06:44:05;100384.31;;;27.58;38.94
6144;BME280;3103;49.492;8.474;2023-06-26T06:46:32;100380.31;;;27.56;39.10
6144;BME280;3103;49.492;8.474;2023-06-26T06:48:58;100379.69;;;27.46;39.39
6144;BME280;3103;49.492;8.474;2023-06-26T06:51:26;100382.22;;;27.67;38.89
6144;BME280;3103;49.492;8.474;2023-06-26T06:53:53;100385.06;;;27.87;38.43
6144;BME280;3103;49.492;8.474;2023-06-26T06:56:20;100386.56;;;28.00;37.95
6144;BME280;3103;49.492;8.474;2023-06-26T06:58:47;100388.91;;;27.82;38.32
6144;BME280;3103;49.492;8.474;2023-06-26T07:01:14;100378.66;;;27.98;38.25
6144;BME280;3103;49.492;8.474;2023-06-26T07:03:40;100382.22;;;27.99;38.03
6144;BME280;3103;49.492;8.474;2023-06-26T07:06:08;100393.00;;;28.04;38.17
6144;BME280;3103;49.492;8.474;2023-06-26T07:08:35;100381.31;;;27.63;39.15
6144;BME280;3103;49.492;8.474;2023-06-26T07:11:02;100383.09;;;27.71;39.28
6144;BME280;3103;49.492;8.474;2023-06-26T07:13:29;100385.41;;;27.85;39.09
6144;BME280;3103;49.492;8.474;2023-06-26T07:15:56;100380.22;;;28.15;38.65
6144;BME280;3103;49.492;8.474;2023-06-26T07:18:23;100380.25;;;28.31;38.38
6144;BME280;3103;49.492;8.474;2023-06-26T07:20:50;100379.44;;;28.30;38.56
6144;BME280;3103;49.492;8.474;2023-06-26T07:23:17;100374.16;;;28.25;38.60
6144;BME280;3103;49.492;8.474;2023-06-26T07:25:44;100375.72;;;28.07;39.51
6144;BME280;3103;49.492;8.474;2023-06-26T07:28:12;100372.91;;;28.23;39.24
6144;BME280;3103;49.492;8.474;2023-06-26T07:30:39;100377.13;;;28.17;39.44
6144;BME280;3103;49.492;8.474;2023-06-26T07:33:06;100373.09;;;28.14;39.74
6144;BME280;3103;49.492;8.474;2023-06-26T07:35:33;100371.97;;;28.50;38.81
6144;BME280;3103;49.492;8.474;2023-06-26T07:38:00;100380.22;;;28.66;38.81
6144;BME280;3103;49.492;8.474;2023-06-26T07:40:27;100386.13;;;27.82;40.62
6144;BME280;3103;49.492;8.474;2023-06-26T07:42:54;100378.56;;;27.79;40.78
6144;BME280;3103;49.492;8.474;2023-06-26T07:45:21;100373.19;;;28.18;40.54
6144;BME280;3103;49.492;8.474;2023-06-26T07:47:51;100386.72;;;28.38;39.51
6144;BME280;3103;49.492;8.474;2023-06-26T07:50:18;100381.47;;;28.33;39.73
6144;BME280;3103;49.492;8.474;2023-06-26T07:52:49;100379.53;;;27.87;40.94
6144;BME280;3103;49.492;8.474;2023-06-26T07:55:16;100375.66;;;28.38;39.52
6144;BME280;3103;49.492;8.474;2023-06-26T07:57:44;100379.78;;;28.64;39.42
6144;BME280;3103;49.492;8.474;2023-06-26T08:00:12;100376.81;;;28.73;39.14
6144;BME280;3103;49.492;8.474;2023-06-26T08:02:42;100378.09;;;28.79;38.78
6144;BME280;3103;49.492;8.474;2023-06-26T08:05:09;100377.81;;;28.84;38.72
6144;BME280;3103;49.492;8.474;2023-06-26T08:07:36;100378.84;;;28.41;39.73
6144;BME280;3103;49.492;8.474;2023-06-26T08:10:03;100387.81;;;28.53;39.72
6144;BME280;3103;49.492;8.474;2023-06-26T08:12:30;100379.06;;;28.86;39.13
6144;BME280;3103;49.492;8.474;2023-06-26T08:14:57;100388.50;;;28.66;39.64
6144;BME280;3103;49.492;8.474;2023-06-26T08:17:24;100391.13;;;28.78;39.58
6144;BME280;3103;49.492;8.474;2023-06-26T08:19:53;100394.94;;;29.09;38.84
6144;BME280;3103;49.492;8.474;2023-06-26T08:22:20;100400.25;;;28.98;39.18
6144;BME280;3103;49.492;8.474;2023-06-26T08:24:47;100393.56;;;29.18;38.69
6144;BME280;3103;49.492;8.474;2023-06-26T08:27:13;100397.00;;;29.35;37.88
6144;BME280;3103;49.492;8.474;2023-06-26T08:29:40;100399.56;;;29.24;38.06
6144;BME280;3103;49.492;8.474;2023-06-26T08:32:07;100401.69;;;29.31;37.75
6144;BME280;3103;49.492;8.474;2023-06-26T08:34:34;100391.91;;;29.14;38.32
6144;BME280;3103;49.492;8.474;2023-06-26T08:37:01;100398.88;;;29.08;37.19
6144;BME280;3103;49.492;8.474;2023-06-26T08:39:29;100398.66;;;28.97;37.27
6144;BME280;3103;49.492;8.474;2023-06-26T08:41:56;100396.03;;;29.04;37.84
6144;BME280;3103;49.492;8.474;2023-06-26T08:44:23;100405.19;;;29.08;36.70
6144;BME280;3103;49.492;8.474;2023-06-26T08:46:51;100413.16;;;28.90;36.71
6144;BME280;3103;49.492;8.474;2023-06-26T08:49:28;100409.94;;;28.88;36.53
6144;BME280;3103;49.492;8.474;2023-06-26T08:52:02;100408.91;;;28.96;36.21
6144;BME280;3103;49.492;8.474;2023-06-26T08:54:34;100418.34;;;29.34;35.91
6144;BME280;3103;49.492;8.474;2023-06-26T08:57:03;100414.97;;;29.64;35.41
6144;BME280;3103;49.492;8.474;2023-06-26T08:59:32;100416.25;;;29.47;35.86
6144;BME280;3103;49.492;8.474;2023-06-26T09:01:59;100423.06;;;29.53;35.77
6144;BME280;3103;49.492;8.474;2023-06-26T09:04:26;100422.03;;;29.84;35.07
6144;BME280;3103;49.492;8.474;2023-06-26T09:06:53;100422.91;;;29.88;34.76
6144;BME280;3103;49.492;8.474;2023-06-26T09:09:20;100423.88;;;29.99;34.65
6144;BME280;3103;49.492;8.474;2023-06-26T09:11:47;100420.38;;;30.02;34.15
6144;BME280;3103;49.492;8.474;2023-06-26T09:14:14;100418.84;;;29.82;34.10
6144;BME280;3103;49.492;8.474;2023-06-26T09:16:41;100413.47;;;29.93;34.16
6144;BME280;3103;49.492;8.474;2023-06-26T09:19:12;100414.84;;;30.02;33.40
6144;BME280;3103;49.492;8.474;2023-06-26T09:21:42;100428.19;;;30.20;33.53
6144;BME280;3103;49.492;8.474;2023-06-26T09:24:10;100420.44;;;30.29;33.21
6144;BME280;3103;49.492;8.474;2023-06-26T09:26:38;100420.84;;;30.31;33.34
6144;BME280;3103;49.492;8.474;2023-06-26T09:29:05;100414.97;;;30.36;33.10
6144;BME280;3103;49.492;8.474;2023-06-26T09:31:33;100422.03;;;30.30;33.47
6144;BME280;3103;49.492;8.474;2023-06-26T09:34:08;100424.88;;;30.10;33.51
6144;BME280;3103;49.492;8.474;2023-06-26T09:36:35;100424.59;;;29.96;33.61
6144;BME280;3103;49.492;8.474;2023-06-26T09:39:07;100431.59;;;30.09;33.19
6144;BME280;3103;49.492;8.474;2023-06-26T09:41:43;100430.59;;;30.21;33.40
6144;BME280;3103;49.492;8.474;2023-06-26T09:44:13;100433.72;;;29.97;33.98
6144;BME280;3103;49.492;8.474;2023-06-26T09:46:40;100436.50;;;29.74;34.34
6144;BME280;3103;49.492;8.474;2023-06-26T09:49:09;100435.66;;;30.16;33.83
6144;BME280;3103;49.492;8.474;2023-06-26T09:51:41;100422.03;;;30.30;33.88
6144;BME280;3103;49.492;8.474;2023-06-26T09:54:09;100432.59;;;30.51;33.46
6144;BME280;3103;49.492;8.474;2023-06-26T09:56:36;100430.03;;;30.12;33.92
6144;BME280;3103;49.492;8.474;2023-06-26T09:59:04;100418.91;;;30.08;34.31
6144;BME280;3103;49.492;8.474;2023-06-26T10:01:32;100428.31;;;30.27;34.02
6144;BME280;3103;49.492;8.474;2023-06-26T10:04:00;100428.91;;;30.13;34.21
6144;BME280;3103;49.492;8.474;2023-06-26T10:06:34;100431.34;;;30.18;34.53
6144;BME280;3103;49.492;8.474;2023-06-26T10:09:03;100428.94;;;30.17;34.48
6144;BME280;3103;49.492;8.474;2023-06-26T10:11:55;100426.41;;;30.08;34.47
6144;BME280;3103;49.492;8.474;2023-06-26T10:14:26;100431.88;;;30.04;34.58
6144;BME280;3103;49.492;8.474;2023-06-26T10:16:57;100435.25;;;29.94;34.87
6144;BME280;3103;49.492;8.474;2023-06-26T10:19:26;100430.22;;;29.77;35.15
6144;BME280;3103;49.492;8.474;2023-06-26T10:21:54;100432.31;;;29.83;35.14
6144;BME280;3103;49.492;8.474;2023-06-26T10:24:23;100432.00;;;30.11;34.95
6144;BME280;3103;49.492;8.474;2023-06-26T10:26:54;100436.28;;;30.05;35.11
6144;BME280;3103;49.492;8.474;2023-06-26T10:29:24;100434.66;;;30.27;34.75
6144;BME280;3103;49.492;8.474;2023-06-26T10:31:56;100432.47;;;30.13;35.25
6144;BME280;3103;49.492;8.474;2023-06-26T10:34:24;100431.94;;;30.31;34.57
6144;BME280;3103;49.492;8.474;2023-06-26T10:37:02;100432.88;;;30.16;34.86
6144;BME280;3103;49.492;8.474;2023-06-26T10:39:49;100440.38;;;29.69;36.13
6144;BME280;3103;49.492;8.474;2023-06-26T10:42:18;100446.00;;;29.73;36.27
6144;BME280;3103;49.492;8.474;2023-06-26T10:44:47;100435.47;;;29.59;36.49
6144;BME280;3103;49.492;8.474;2023-06-26T10:47:40;100443.47;;;29.45;36.82
6144;BME280;3103;49.492;8.474;2023-06-26T10:50:27;100449.59;;;29.54;36.78
6144;BME280;3103;49.492;8.474;2023-06-26T10:55:42;100450.09;;;29.60;36.43
6144;BME280;3103;49.492;8.474;2023-06-26T11:03:40;100448.25;;;29.90;36.48
6144;BME280;3103;49.492;8.474;2023-06-26T11:06:21;100445.50;;;29.90;36.42
6144;BME280;3103;49.492;8.474;2023-06-26T11:08:52;100444.03;;;29.73;36.77
6144;BME280;3103;49.492;8.474;2023-06-26T11:12:16;100437.19;;;29.90;36.40
6144;BME280;3103;49.492;8.474;2023-06-26T11:14:35;100431.50;;;29.83;36.75
6144;BME280;3103;49.492;8.474;2023-06-26T11:17:03;100430.53;;;29.72;36.99
6144;BME280;3103;49.492;8.474;2023-06-26T11:19:31;100430.91;;;29.93;36.87
6144;BME280;3103;49.492;8.474;2023-06-26T11:21:59;100426.22;;;29.97;36.43
6144;BME280;3103;49.492;8.474;2023-06-26T11:24:28;100422.28;;;29.98;36.31
6144;BME280;3103;49.492;8.474;2023-06-26T11:27:00;100426.00;;;30.06;36.27
6144;BME280;3103;49.492;8.474;2023-06-26T11:29:27;100431.94;;;30.31;35.74
6144;BME280;3103;49.492;8.474;2023-06-26T11:31:59;100441.94;;;30.39;35.94
6144;BME280;3103;49.492;8.474;2023-06-26T11:34:32;100441.56;;;30.14;35.19
6144;BME280;3103;49.492;8.474;2023-06-26T11:36:59;100437.19;;;29.90;35.25
6144;BME280;3103;49.492;8.474;2023-06-26T11:39:28;100436.28;;;30.05;34.85
6144;BME280;3103;49.492;8.474;2023-06-26T11:41:55;100437.78;;;30.26;34.13
6144;BME280;3103;49.492;8.474;2023-06-26T11:44:22;100438.22;;;30.28;34.11
6144;BME280;3103;49.492;8.474;2023-06-26T11:46:51;100444.72;;;30.12;33.38
6144;BME280;3103;49.492;8.474;2023-06-26T11:49:18;100448.50;;;30.27;33.98
6144;BME280;3103;49.492;8.474;2023-06-26T11:51:50;100437.16;;;30.36;32.55
6144;BME280;3103;49.492;8.474;2023-06-26T11:54:26;100442.81;;;30.43;32.60
6144;BME280;3103;49.492;8.474;2023-06-26T11:56:58;100439.88;;;30.32;32.42
6144;BME280;3103;49.492;8.474;2023-06-26T11:59:37;100443.31;;;30.26;32.52
6144;BME280;3103;49.492;8.474;2023-06-26T12:02:09;100448.75;;;30.19;33.11
6144;BME280;3103;49.492;8.474;2023-06-26T12:04:37;100450.31;;;30.16;33.14
6144;BME280;3103;49.492;8.474;2023-06-26T12:07:06;100439.47;;;30.07;32.08
6144;BME280;3103;49.492;8.474;2023-06-26T12:09:43;100448.75;;;30.19;31.31
6144;BME280;3103;49.492;8.474;2023-06-26T12:12:12;100440.78;;;30.13;30.61
6144;BME280;3103;49.492;8.474;2023-06-26T12:14:40;100446.47;;;30.24;30.39
6144;BME280;3103;49.492;8.474;2023-06-26T12:17:10;100455.91;;;30.20;30.26
6144;BME280;3103;49.492;8.474;2023-06-26T12:19:44;100458.19;;;30.14;29.85
6144;BME280;3103;49.492;8.474;2023-06-26T12:22:11;100453.25;;;30.27;29.31
6144;BME280;3103;49.492;8.474;2023-06-26T12:24:38;100448.13;;;30.29;28.54
6144;BME280;3103;49.492;8.474;2023-06-26T12:27:10;100447.84;;;30.11;28.70
6144;BME280;3103;49.492;8.474;2023-06-26T12:29:38;100458.34;;;30.25;28.88
6144;BME280;3103;49.492;8.474;2023-06-26T12:32:10;100450.31;;;30.16;28.04
6144;BME280;3103;49.492;8.474;2023-06-26T12:34:39;100438.56;;;30.26;28.20
6144;BME280;3103;49.492;8.474;2023-06-26T12:37:08;100445.75;;;30.27;28.45
6144;BME280;3103;49.492;8.474;2023-06-26T12:39:52;100440.41;;;30.41;28.04
6144;BME280;3103;49.492;8.474;2023-06-26T12:42:22;100445.28;;;30.52;28.13
6144;BME280;3103;49.492;8.474;2023-06-26T12:44:51;100447.59;;;30.46;27.54
6144;BME280;3103;49.492;8.474;2023-06-26T12:47:25;100454.91;;;30.58;26.96
6144;BME280;3103;49.492;8.474;2023-06-26T12:49:54;100453.34;;;30.60;27.33
6144;BME280;3103;49.492;8.474;2023-06-26T12:52:21;100451.88;;;30.66;26.69
6144;BME280;3103;49.492;8.474;2023-06-26T12:54:52;100446.63;;;30.61;26.36
6144;BME280;3103;49.492;8.474;2023-06-26T12:57:20;100451.81;;;30.63;26.12
6144;BME280;3103;49.492;8.474;2023-06-26T12:59:46;100446.75;;;30.42;26.09
6144;BME280;3103;49.492;8.474;2023-06-26T13:02:13;100452.25;;;30.65;26.62
6144;BME280;3103;49.492;8.474;2023-06-26T13:04:40;100442.53;;;30.78;26.57
6144;BME280;3103;49.492;8.474;2023-06-26T13:07:08;100431.72;;;30.99;26.84
6144;BME280;3103;49.492;8.474;2023-06-26T13:09:36;100437.13;;;30.89;26.43
6144;BME280;3103;49.492;8.474;2023-06-26T13:12:04;100441.59;;;30.97;26.50
6144;BME280;3103;49.492;8.474;2023-06-26T13:14:32;100438.06;;;31.00;26.67
6144;BME280;3103;49.492;8.474;2023-06-26T13:17:02;100434.97;;;30.75;26.77
6144;BME280;3103;49.492;8.474;2023-06-26T13:19:31;100427.34;;;30.68;27.56
6144;BME280;3103;49.492;8.474;2023-06-26T13:21:58;100441.84;;;30.85;27.36
6144;BME280;3103;49.492;8.474;2023-06-26T13:24:27;100436.13;;;31.04;27.01
6144;BME280;3103;49.492;8.474;2023-06-26T13:26:53;100438.25;;;30.84;26.99
6144;BME280;3103;49.492;8.474;2023-06-26T13:29:20;100441.69;;;31.04;26.84